createdAt,value
2019-03-25T00:01:05.257Z,99922.00
2019-03-25T00:03:34.786Z,99923.00
2019-03-25T00:06:04.029Z,99919.00
2019-03-25T00:08:33.214Z,99923.00
2019-03-25T00:11:02.630Z,99918.00
2019-03-25T00:13:31.864Z,99910.00
2019-03-25T00:16:01.216Z,99905.00
2019-03-25T00:18:30.401Z,99895.00
2019-03-25T00:20:59.781Z,99885.00
2019-03-25T00:23:29.051Z,99882.00
2019-03-25T00:25:58.186Z,99874.00
2019-03-25T00:28:27.591Z,99869.00
2019-03-25T00:30:56.809Z,99870.00
2019-03-25T00:33:26.220Z,99863.00
2019-03-25T00:35:55.642Z,99862.00
2019-03-25T00:38:24.795Z,99856.00
2019-03-25T00:40:54.216Z,99851.00
2019-03-25T00:43:23.641Z,99854.00
2019-03-25T00:45:52.801Z,99852.00
2019-03-25T00:48:22.168Z,99846.00
2019-03-25T00:50:51.792Z,99840.00
2019-03-25T00:53:20.992Z,99845.00
2019-03-25T00:55:50.737Z,99842.00
2019-03-25T00:58:20.175Z,99843.00
2019-03-25T01:00:49.371Z,99836.00
2019-03-25T01:03:19.136Z,99838.00
2019-03-25T01:05:48.294Z,99836.00
2019-03-25T01:08:17.478Z,99833.00
2019-03-25T01:10:46.884Z,99842.00
2019-03-25T01:13:16.280Z,99840.00
2019-03-25T01:15:45.425Z,99828.00
2019-03-25T01:18:17.204Z,99834.00
2019-03-25T01:20:45.770Z,99824.00
2019-03-25T01:23:15.158Z,99820.00
2019-03-25T01:25:44.368Z,99807.00
2019-03-25T01:28:13.526Z,99802.00
2019-03-25T01:30:42.927Z,99805.00
2019-03-25T01:33:12.089Z,99790.00
2019-03-25T01:35:41.480Z,99790.00
2019-03-25T01:38:10.878Z,99794.00
2019-03-25T01:40:40.076Z,99791.00
2019-03-25T01:43:09.453Z,99788.00
2019-03-25T01:45:38.873Z,99781.00
2019-03-25T01:48:08.078Z,99775.00
2019-03-25T01:50:37.208Z,99776.00
2019-03-25T01:53:06.355Z,99772.00
2019-03-25T01:55:35.779Z,99766.00
2019-03-25T01:58:05.240Z,99761.00
2019-03-25T02:00:34.470Z,99767.00
2019-03-25T02:03:03.857Z,99751.00
2019-03-25T02:05:33.248Z,99747.00
2019-03-25T02:08:02.406Z,99741.00
2019-03-25T02:10:31.862Z,99746.00
2019-03-25T02:13:01.057Z,99734.00
2019-03-25T02:15:30.383Z,99736.00
2019-03-25T02:17:59.724Z,99724.00
2019-03-25T02:20:28.884Z,99732.00
2019-03-25T02:22:58.230Z,99721.00
2019-03-25T02:25:27.739Z,99699.00
2019-03-25T02:27:56.909Z,99705.00
2019-03-25T02:30:32.147Z,99707.00
2019-03-25T02:33:01.299Z,99695.00
2019-03-25T02:35:30.684Z,99703.00
2019-03-25T02:38:00.146Z,99695.00
2019-03-25T02:40:29.388Z,99691.00
2019-03-25T02:42:58.794Z,99678.00
2019-03-25T02:45:27.942Z,99685.00
2019-03-25T02:47:57.219Z,99684.00
2019-03-25T02:50:26.607Z,99680.00
2019-03-25T02:52:57.200Z,99679.00
2019-03-25T02:55:40.768Z,99671.00
2019-03-25T02:57:57.447Z,99666.00
2019-03-25T03:00:38.519Z,99662.00
2019-03-25T03:03:09.041Z,99664.00
2019-03-25T03:05:38.523Z,99655.00
2019-03-25T03:08:07.724Z,99657.00
2019-03-25T03:10:37.114Z,99655.00
2019-03-25T03:13:06.353Z,99653.00
2019-03-25T03:15:35.859Z,99648.00
2019-03-25T03:18:05.324Z,99643.00
2019-03-25T03:20:34.720Z,99642.00
2019-03-25T03:23:04.183Z,99642.00
2019-03-25T03:25:33.337Z,99640.00
2019-03-25T03:28:02.752Z,99650.00
2019-03-25T03:30:32.156Z,99639.00
2019-03-25T03:33:01.320Z,99635.00
2019-03-25T03:35:30.447Z,99630.00
2019-03-25T03:37:59.847Z,99629.00
2019-03-25T03:40:29.032Z,99623.00
2019-03-25T03:42:58.483Z,99619.00
2019-03-25T03:45:27.666Z,99622.00
2019-03-25T03:47:56.799Z,99618.00
2019-03-25T03:50:27.272Z,99621.00
2019-03-25T03:52:57.159Z,99621.00
2019-03-25T03:55:26.686Z,99625.00
2019-03-25T03:57:57.116Z,99612.00
2019-03-25T04:00:34.269Z,99614.00
2019-03-25T04:03:03.882Z,99601.00
2019-03-25T04:05:33.117Z,99599.00
2019-03-25T04:08:02.766Z,99599.00
2019-03-25T04:10:32.190Z,99593.00
2019-03-25T04:13:01.366Z,99589.00
2019-03-25T04:15:32.191Z,99589.00
2019-03-25T04:18:01.432Z,99573.00
2019-03-25T04:20:30.954Z,99575.00
2019-03-25T04:23:00.308Z,99567.00
2019-03-25T04:25:29.612Z,99553.00
2019-03-25T04:27:59.460Z,99546.00
2019-03-25T04:30:28.953Z,99537.00
2019-03-25T04:32:58.558Z,99541.00
2019-03-25T04:35:27.759Z,99520.00
2019-03-25T04:37:57.151Z,99518.00
2019-03-25T04:40:26.390Z,99523.00
2019-03-25T04:42:55.864Z,99525.00
2019-03-25T04:45:27.310Z,99530.00
2019-03-25T04:47:56.539Z,99533.00
2019-03-25T04:50:25.886Z,99532.00
2019-03-25T04:52:55.088Z,99515.00
2019-03-25T04:55:24.222Z,99512.00
2019-03-25T04:57:53.629Z,99504.00
2019-03-25T05:00:38.588Z,99500.00
2019-03-25T05:03:08.049Z,99498.00
2019-03-25T05:05:37.469Z,99501.00
2019-03-25T05:08:06.629Z,99483.00
2019-03-25T05:10:36.085Z,99483.00
2019-03-25T05:13:05.487Z,99488.00
2019-03-25T05:15:34.702Z,99489.00
2019-03-25T05:18:03.992Z,99490.00
2019-03-25T05:20:33.392Z,99485.00
2019-03-25T05:23:03.190Z,99485.00
2019-03-25T05:25:32.404Z,99468.00
2019-03-25T05:28:01.901Z,99460.00
2019-03-25T05:30:31.213Z,99454.00
2019-03-25T05:33:00.703Z,99443.00
2019-03-25T05:35:30.514Z,99452.00
2019-03-25T05:37:59.838Z,99454.00
2019-03-25T05:40:29.326Z,99456.00
2019-03-25T05:42:58.836Z,99452.00
2019-03-25T05:45:28.456Z,99451.00
2019-03-25T05:47:57.656Z,99449.00
2019-03-25T05:50:27.152Z,99447.00
2019-03-25T05:52:56.462Z,99450.00
2019-03-25T05:55:25.666Z,99450.00
2019-03-25T05:57:54.874Z,99440.00
2019-03-25T06:00:25.799Z,99446.00
2019-03-25T06:02:55.296Z,99441.00
2019-03-25T06:05:24.801Z,99441.00
2019-03-25T06:07:54.222Z,99434.00
2019-03-25T06:10:23.726Z,99432.00
2019-03-25T06:12:53.222Z,99429.00
2019-03-25T06:15:22.833Z,99424.00
2019-03-25T06:17:52.041Z,99423.00
2019-03-25T06:20:21.545Z,99423.00
2019-03-25T06:22:50.938Z,99424.00
2019-03-25T06:25:20.151Z,99437.00
2019-03-25T06:27:49.607Z,99431.00
2019-03-25T06:30:19.981Z,99420.00
2019-03-25T06:32:49.480Z,99428.00
2019-03-25T06:35:24.851Z,99419.00
2019-03-25T06:37:54.328Z,99414.00
2019-03-25T06:40:23.833Z,99412.00
2019-03-25T06:42:53.042Z,99408.00
2019-03-25T06:45:22.340Z,99414.00
2019-03-25T06:47:51.745Z,99418.00
2019-03-25T06:50:20.947Z,99413.00
2019-03-25T06:52:50.142Z,99420.00
2019-03-25T06:55:19.323Z,99422.00
2019-03-25T06:57:48.643Z,99424.00
2019-03-25T07:00:18.744Z,99424.00
2019-03-25T07:02:48.296Z,99425.00
2019-03-25T07:05:17.973Z,99417.00
2019-03-25T07:07:47.289Z,99423.00
2019-03-25T07:10:35.382Z,99430.00
2019-03-25T07:13:05.640Z,99433.00
2019-03-25T07:15:35.037Z,99440.00
2019-03-25T07:18:04.964Z,99440.00
2019-03-25T07:20:34.375Z,99442.00
2019-03-25T07:23:03.682Z,99436.00
2019-03-25T07:25:33.156Z,99428.00
2019-03-25T07:28:02.682Z,99437.00
2019-03-25T07:30:32.091Z,99439.00
2019-03-25T07:33:01.589Z,99434.00
2019-03-25T07:35:31.089Z,99446.00
2019-03-25T07:38:00.598Z,99448.00
2019-03-25T07:40:29.914Z,99445.00
2019-03-25T07:42:59.326Z,99448.00
2019-03-25T07:45:29.115Z,99461.00
2019-03-25T07:47:58.432Z,99461.00
2019-03-25T07:50:29.157Z,99474.00
2019-03-25T07:52:58.468Z,99463.00
2019-03-25T07:55:28.089Z,99459.00
2019-03-25T07:57:57.593Z,99468.00
2019-03-25T08:00:26.894Z,99473.00
2019-03-25T08:02:56.385Z,99485.00
2019-03-25T08:05:25.820Z,99477.00
2019-03-25T08:07:55.335Z,99481.00
2019-03-25T08:10:36.431Z,99491.00
2019-03-25T08:13:07.647Z,99476.00
2019-03-25T08:15:37.139Z,99485.00
2019-03-25T08:18:07.152Z,99499.00
2019-03-25T08:20:36.643Z,99497.00
2019-03-25T08:23:06.365Z,99500.00
2019-03-25T08:25:35.860Z,99503.00
2019-03-25T08:28:05.547Z,99500.00
2019-03-25T08:30:34.992Z,99497.00
2019-03-25T08:33:04.698Z,99498.00
2019-03-25T08:35:34.302Z,99503.00
2019-03-25T08:38:03.512Z,99508.00
2019-03-25T08:40:33.010Z,99500.00
2019-03-25T08:43:02.632Z,99507.00
2019-03-25T08:45:32.745Z,99514.00
2019-03-25T08:48:02.338Z,99506.00
2019-03-25T08:50:34.877Z,99506.00
2019-03-25T08:53:03.926Z,99519.00
2019-03-25T08:55:33.420Z,99523.00
2019-03-25T08:58:11.939Z,99526.00
2019-03-25T09:00:37.786Z,99516.00
2019-03-25T09:03:07.175Z,99523.00
2019-03-25T09:05:36.788Z,99524.00
2019-03-25T09:08:07.116Z,99524.00
2019-03-25T09:10:37.765Z,99529.00
2019-03-25T09:13:07.342Z,99518.00
2019-03-25T09:15:36.549Z,99530.00
2019-03-25T09:18:11.391Z,99525.00
2019-03-25T09:20:41.292Z,99525.00
2019-03-25T09:23:10.538Z,99524.00
2019-03-25T09:25:40.398Z,99529.00
2019-03-25T09:28:09.800Z,99536.00
2019-03-25T09:30:56.211Z,99521.00
2019-03-25T09:33:25.724Z,99538.00
2019-03-25T09:35:56.563Z,99537.00
2019-03-25T09:38:25.950Z,99537.00
2019-03-25T09:40:55.364Z,99537.00
2019-03-25T09:43:24.978Z,99530.00
2019-03-25T09:45:54.368Z,99535.00
2019-03-25T09:48:23.715Z,99540.00
2019-03-25T09:50:53.507Z,99555.00
2019-03-25T09:53:22.838Z,99547.00
2019-03-25T09:55:52.441Z,99540.00
2019-03-25T09:58:21.823Z,99544.00
2019-03-25T10:00:52.114Z,99551.00
2019-03-25T10:03:21.833Z,99562.00
2019-03-25T10:05:51.239Z,99550.00
2019-03-25T10:08:24.259Z,99551.00
2019-03-25T10:10:53.647Z,99543.00
2019-03-25T10:13:23.136Z,99543.00
2019-03-25T10:15:53.570Z,99551.00
2019-03-25T10:18:25.225Z,99566.00
2019-03-25T10:20:54.944Z,99548.00
2019-03-25T10:23:27.574Z,99543.00
2019-03-25T10:25:59.385Z,99548.00
2019-03-25T10:28:29.561Z,99551.00
2019-03-25T10:30:59.101Z,99544.00
2019-03-25T10:33:29.749Z,99553.00
2019-03-25T10:35:59.141Z,99560.00
2019-03-25T10:38:31.108Z,99556.00
2019-03-25T10:41:00.321Z,99556.00
2019-03-25T10:43:29.620Z,99555.00
2019-03-25T10:45:59.114Z,99555.00
2019-03-25T10:48:49.310Z,99549.00
2019-03-25T10:51:21.003Z,99555.00
2019-03-25T10:53:50.375Z,99543.00
2019-03-25T10:56:19.806Z,99545.00
2019-03-25T10:58:57.801Z,99553.00
2019-03-25T11:01:21.439Z,99553.00
2019-03-25T11:03:50.654Z,99554.00
2019-03-25T11:06:20.144Z,99545.00
2019-03-25T11:08:49.656Z,99542.00
2019-03-25T11:11:19.181Z,99539.00
2019-03-25T11:13:48.667Z,99542.00
2019-03-25T11:16:18.291Z,99543.00
2019-03-25T11:18:51.950Z,99543.00
2019-03-25T11:21:25.271Z,99544.00
2019-03-25T11:23:54.588Z,99528.00
2019-03-25T11:26:27.602Z,99539.00
2019-03-25T11:28:56.879Z,99521.00
2019-03-25T11:31:26.374Z,99529.00
2019-03-25T11:33:55.698Z,99526.00
2019-03-25T11:36:25.152Z,99530.00
2019-03-25T11:38:55.004Z,99531.00
2019-03-25T11:41:24.810Z,99534.00
2019-03-25T11:43:56.761Z,99518.00
2019-03-25T11:46:26.095Z,99519.00
2019-03-25T11:48:58.085Z,99523.00
2019-03-25T11:51:27.542Z,99528.00
2019-03-25T11:53:58.692Z,99532.00
2019-03-25T11:56:28.208Z,99534.00
2019-03-25T11:58:59.253Z,99523.00
2019-03-25T12:01:28.655Z,99546.00
2019-03-25T12:03:57.851Z,99545.00
2019-03-25T12:06:27.267Z,99549.00
2019-03-25T12:08:56.757Z,99537.00
2019-03-25T12:11:25.962Z,99528.00
2019-03-25T12:13:55.160Z,99531.00
2019-03-25T12:16:24.362Z,99533.00
2019-03-25T12:18:55.839Z,99539.00
2019-03-25T12:21:25.625Z,99539.00
2019-03-25T12:23:54.829Z,99535.00
2019-03-25T12:26:24.657Z,99545.00
2019-03-25T12:28:53.837Z,99545.00
2019-03-25T12:31:23.229Z,99540.00
2019-03-25T12:33:52.544Z,99537.00
2019-03-25T12:36:22.032Z,99533.00
2019-03-25T12:38:51.775Z,99543.00
2019-03-25T12:41:21.252Z,99548.00
2019-03-25T12:43:50.657Z,99571.00
2019-03-25T12:46:19.851Z,99583.00
2019-03-25T12:48:49.487Z,99604.00
2019-03-25T12:51:18.814Z,99587.00
2019-03-25T12:53:47.979Z,99590.00
2019-03-25T12:56:17.282Z,99586.00
2019-03-25T12:58:46.780Z,99584.00
2019-03-25T13:01:20.155Z,99581.00
2019-03-25T13:03:49.490Z,99565.00
2019-03-25T13:06:18.977Z,99572.00
2019-03-25T13:08:48.486Z,99556.00
2019-03-25T13:11:24.029Z,99565.00
2019-03-25T13:13:53.328Z,99572.00
2019-03-25T13:16:24.189Z,99573.00
2019-03-25T13:18:54.388Z,99567.00
2019-03-25T13:21:25.716Z,99576.00
2019-03-25T13:23:56.087Z,99577.00
2019-03-25T13:26:25.385Z,99576.00
2019-03-25T13:29:01.855Z,99578.00
2019-03-25T13:31:25.934Z,99576.00
2019-03-25T13:33:55.429Z,99575.00
2019-03-25T13:36:24.744Z,99578.00
2019-03-25T13:38:54.043Z,99577.00
2019-03-25T13:41:23.346Z,99574.00
2019-03-25T13:43:52.853Z,99569.00
2019-03-25T13:46:22.055Z,99573.00
2019-03-25T13:48:51.445Z,99574.00
2019-03-25T13:51:25.042Z,99570.00
2019-03-25T13:53:52.725Z,99571.00
2019-03-25T13:56:22.625Z,99591.00
2019-03-25T13:58:52.027Z,99582.00
2019-03-25T14:01:21.539Z,99582.00
2019-03-25T14:03:50.746Z,99589.00
2019-03-25T14:06:20.254Z,99589.00
2019-03-25T14:08:49.742Z,99594.00
2019-03-25T14:11:20.820Z,99592.00
2019-03-25T14:13:50.430Z,99591.00
2019-03-25T14:16:19.903Z,99595.00
2019-03-25T14:18:49.114Z,99602.00
2019-03-25T14:21:18.614Z,99602.00
2019-03-25T14:23:48.228Z,99604.00
2019-03-25T14:26:17.444Z,99603.00
2019-03-25T14:28:46.817Z,99612.00
2019-03-25T14:31:16.416Z,99614.00
2019-03-25T14:33:46.040Z,99621.00
2019-03-25T14:36:15.356Z,99620.00
2019-03-25T14:38:44.845Z,99636.00
2019-03-25T14:41:14.160Z,99634.00
2019-03-25T14:43:43.476Z,99630.00
2019-03-25T14:46:12.943Z,99628.00
2019-03-25T14:48:42.168Z,99631.00
2019-03-25T14:51:11.369Z,99629.00
2019-03-25T14:53:45.150Z,99638.00
2019-03-25T14:56:31.067Z,99628.00
2019-03-25T14:59:00.451Z,99639.00
2019-03-25T15:01:29.769Z,99644.00
2019-03-25T15:03:59.162Z,99648.00
2019-03-25T15:06:28.672Z,99656.00
2019-03-25T15:08:58.413Z,99661.00
2019-03-25T15:11:27.885Z,99670.00
2019-03-25T15:13:57.506Z,99668.00
2019-03-25T15:16:27.310Z,99671.00
2019-03-25T15:19:03.365Z,99680.00
2019-03-25T15:21:32.690Z,99672.00
2019-03-25T15:24:01.873Z,99674.00
2019-03-25T15:26:31.181Z,99687.00
2019-03-25T15:29:00.687Z,99693.00
2019-03-25T15:31:30.186Z,99685.00
2019-03-25T15:33:59.689Z,99688.00
2019-03-25T15:36:29.200Z,99693.00
2019-03-25T15:38:58.509Z,99710.00
2019-03-25T15:41:27.998Z,99741.00
2019-03-25T15:43:57.215Z,99746.00
2019-03-25T15:46:26.603Z,99744.00
2019-03-25T15:48:56.112Z,99737.00
2019-03-25T15:51:25.279Z,99734.00
2019-03-25T15:53:54.641Z,99748.00
2019-03-25T15:56:23.791Z,99743.00
2019-03-25T15:58:53.009Z,99751.00
2019-03-25T16:01:22.409Z,99748.00
2019-03-25T16:03:51.809Z,99755.00
2019-03-25T16:06:22.424Z,99752.00
2019-03-25T16:08:51.997Z,99757.00
2019-03-25T16:11:21.155Z,99760.00
2019-03-25T16:13:50.355Z,99766.00
2019-03-25T16:16:19.859Z,99764.00
2019-03-25T16:18:49.326Z,99770.00
2019-03-25T16:21:18.770Z,99772.00
2019-03-25T16:23:47.937Z,99763.00
2019-03-25T16:26:17.614Z,99768.00
2019-03-25T16:28:46.800Z,99776.00
2019-03-25T16:31:17.227Z,99779.00
2019-03-25T16:33:49.471Z,99784.00
2019-03-25T16:36:18.966Z,99801.00
2019-03-25T16:38:48.552Z,99795.00
2019-03-25T16:41:17.738Z,99799.00
2019-03-25T16:43:47.218Z,99798.00
2019-03-25T16:46:17.569Z,99803.00
2019-03-25T16:48:46.721Z,99804.00
2019-03-25T16:51:16.146Z,99809.00
2019-03-25T16:53:45.565Z,99817.00
2019-03-25T16:56:15.004Z,99818.00
2019-03-25T16:58:44.185Z,99828.00
2019-03-25T17:01:13.365Z,99821.00
2019-03-25T17:03:42.534Z,99833.00
2019-03-25T17:06:11.954Z,99833.00
2019-03-25T17:08:41.329Z,99841.00
2019-03-25T17:11:10.587Z,99851.00
2019-03-25T17:13:39.806Z,99853.00
2019-03-25T17:16:09.154Z,99860.00
2019-03-25T17:18:38.352Z,99865.00
2019-03-25T17:21:07.559Z,99876.00
2019-03-25T17:23:36.754Z,99880.00
2019-03-25T17:26:06.164Z,99871.00
2019-03-25T17:28:35.762Z,99878.00
2019-03-25T17:31:04.964Z,99881.00
2019-03-25T17:33:34.177Z,99886.00
2019-03-25T17:36:03.360Z,99895.00
2019-03-25T17:38:32.753Z,99892.00
2019-03-25T17:41:02.154Z,99893.00
2019-03-25T17:43:31.368Z,99903.00
2019-03-25T17:46:00.875Z,99911.00
2019-03-25T17:48:30.277Z,99923.00
2019-03-25T17:50:59.994Z,99933.00
2019-03-25T17:53:29.479Z,99938.00
2019-03-25T17:55:58.799Z,99938.00
2019-03-25T17:58:28.109Z,99956.00
2019-03-25T18:01:04.893Z,99963.00
2019-03-25T18:03:34.370Z,99963.00
2019-03-25T18:06:03.591Z,99968.00
2019-03-25T18:08:32.882Z,99971.00
2019-03-25T18:11:02.085Z,99979.00
2019-03-25T18:13:31.570Z,99985.00
2019-03-25T18:16:01.108Z,99992.00
2019-03-25T18:18:30.704Z,100001.00
2019-03-25T18:20:59.901Z,100001.00
2019-03-25T18:23:29.612Z,100003.00
2019-03-25T18:25:58.814Z,100023.00
2019-03-25T18:28:28.121Z,100028.00
2019-03-25T18:30:57.414Z,100026.00
2019-03-25T18:33:30.239Z,100034.00
2019-03-25T18:35:59.812Z,100048.00
2019-03-25T18:38:29.419Z,100063.00
2019-03-25T18:40:58.821Z,100062.00
2019-03-25T18:43:28.667Z,100066.00
2019-03-25T18:45:57.946Z,100073.00
2019-03-25T18:48:27.348Z,100081.00
2019-03-25T18:51:01.490Z,100087.00
2019-03-25T18:53:30.838Z,100083.00
2019-03-25T18:56:00.472Z,100093.00
2019-03-25T18:58:29.866Z,100097.00
2019-03-25T19:00:59.773Z,100100.00
2019-03-25T19:03:28.991Z,100099.00
2019-03-25T19:05:59.034Z,100110.00
2019-03-25T19:08:29.774Z,100102.00
2019-03-25T19:10:59.419Z,100102.00
2019-03-25T19:13:29.158Z,100114.00
2019-03-25T19:15:58.857Z,100116.00
2019-03-25T19:18:28.487Z,100115.00
2019-03-25T19:20:58.000Z,100108.00
2019-03-25T19:23:27.599Z,100113.00
2019-03-25T19:25:58.913Z,100122.00
2019-03-25T19:28:28.475Z,100129.00
2019-03-25T19:31:00.185Z,100138.00
2019-03-25T19:33:29.516Z,100139.00
2019-03-25T19:35:58.912Z,100132.00
2019-03-25T19:38:28.131Z,100137.00
2019-03-25T19:40:57.771Z,100137.00
2019-03-25T19:43:27.258Z,100148.00
2019-03-25T19:45:57.039Z,100151.00
2019-03-25T19:48:26.348Z,100153.00
2019-03-25T19:50:56.877Z,100163.00
2019-03-25T19:53:33.413Z,100158.00
2019-03-25T19:56:05.313Z,100166.00
2019-03-25T19:58:36.197Z,100175.00
2019-03-25T20:01:05.960Z,100168.00
2019-03-25T20:03:35.558Z,100183.00
2019-03-25T20:06:04.788Z,100185.00
2019-03-25T20:08:34.596Z,100191.00
2019-03-25T20:11:04.661Z,100198.00
2019-03-25T20:13:34.107Z,100202.00
2019-03-25T20:16:06.489Z,100202.00
2019-03-25T20:18:37.208Z,100209.00
2019-03-25T20:21:07.575Z,100211.00
2019-03-25T20:23:37.045Z,100214.00
2019-03-25T20:26:09.558Z,100220.00
2019-03-25T20:28:40.951Z,100220.00
2019-03-25T20:31:10.365Z,100227.00
2019-03-25T20:33:41.838Z,100229.00
2019-03-25T20:36:15.945Z,100228.00
2019-03-25T20:38:49.339Z,100233.00
2019-03-25T20:41:18.013Z,100238.00
2019-03-25T20:43:47.571Z,100242.00
2019-03-25T20:46:18.419Z,100251.00
2019-03-25T20:48:51.527Z,100244.00
2019-03-25T20:51:21.176Z,100242.00
2019-03-25T20:53:50.542Z,100252.00
2019-03-25T20:56:21.118Z,100250.00
2019-03-25T20:58:51.028Z,100259.00
2019-03-25T21:01:23.622Z,100273.00
2019-03-25T21:03:54.215Z,100279.00
2019-03-25T21:06:23.789Z,100287.00
2019-03-25T21:08:54.809Z,100285.00
2019-03-25T21:11:25.684Z,100276.00
2019-03-25T21:13:55.769Z,100282.00
2019-03-25T21:16:26.892Z,100284.00
2019-03-25T21:18:56.457Z,100284.00
2019-03-25T21:21:25.910Z,100285.00
2019-03-25T21:23:57.571Z,100292.00
2019-03-25T21:26:28.603Z,100283.00
2019-03-25T21:29:00.409Z,100293.00
2019-03-25T21:31:30.061Z,100297.00
2019-03-25T21:33:59.703Z,100304.00
2019-03-25T21:36:29.094Z,100302.00
2019-03-25T21:38:58.385Z,100308.00
2019-03-25T21:41:27.838Z,100308.00
2019-03-25T21:43:57.159Z,100306.00
2019-03-25T21:46:26.646Z,100319.00
2019-03-25T21:48:55.969Z,100316.00
2019-03-25T21:51:25.308Z,100318.00
2019-03-25T21:53:55.007Z,100331.00
2019-03-25T21:56:26.662Z,100337.00
2019-03-25T21:58:56.265Z,100337.00
2019-03-25T22:01:25.812Z,100339.00
2019-03-25T22:03:57.032Z,100343.00
2019-03-25T22:06:26.522Z,100342.00
2019-03-25T22:08:56.037Z,100338.00
2019-03-25T22:11:25.244Z,100336.00
2019-03-25T22:13:54.837Z,100335.00
2019-03-25T22:16:24.053Z,100335.00
2019-03-25T22:18:53.353Z,100336.00
2019-03-25T22:21:22.741Z,100350.00
2019-03-25T22:23:53.801Z,100342.00
2019-03-25T22:26:22.998Z,100352.00
2019-03-25T22:28:52.406Z,100348.00
2019-03-25T22:31:21.602Z,100352.00
2019-03-25T22:33:51.398Z,100359.00
2019-03-25T22:36:20.614Z,100357.00
2019-03-25T22:38:49.916Z,100363.00
2019-03-25T22:41:19.319Z,100369.00
2019-03-25T22:43:48.518Z,100371.00
2019-03-25T22:46:17.912Z,100368.00
2019-03-25T22:48:47.121Z,100372.00
2019-03-25T22:51:16.322Z,100384.00
2019-03-25T22:53:45.678Z,100382.00
2019-03-25T22:56:14.840Z,100388.00
2019-03-25T22:58:44.317Z,100390.00
2019-03-25T23:01:13.921Z,100403.00
2019-03-25T23:03:43.434Z,100404.00
2019-03-25T23:06:12.643Z,100401.00
2019-03-25T23:08:42.033Z,100401.00
2019-03-25T23:11:11.744Z,100401.00
2019-03-25T23:13:41.058Z,100411.00
2019-03-25T23:16:10.558Z,100413.00
2019-03-25T23:18:39.867Z,100423.00
2019-03-25T23:21:09.065Z,100419.00
2019-03-25T23:23:38.373Z,100416.00
2019-03-25T23:26:07.810Z,100421.00
2019-03-25T23:28:37.073Z,100423.00
2019-03-25T23:31:06.570Z,100419.00
2019-03-25T23:33:36.171Z,100419.00
2019-03-25T23:36:05.386Z,100411.00
2019-03-25T23:38:34.937Z,100424.00
2019-03-25T23:41:04.383Z,100423.00
2019-03-25T23:43:33.701Z,100422.00
2019-03-25T23:46:03.192Z,100428.00
2019-03-25T23:48:32.406Z,100432.00
2019-03-25T23:51:01.811Z,100430.00
2019-03-25T23:53:31.112Z,100443.00
2019-03-25T23:56:00.505Z,100444.00
2019-03-25T23:58:29.817Z,100452.00
